Addison, Michigan
Current Conditions -  °F | °C
As of 8:35 PM on Monday 22 Dec 2014 (Local Time) from KJYM Reporting Station
Unknown Precip Unknown Precip  
Wind Chill: 26°   Ceiling: 5000
Heat Index: 35°   Visibility: 5mi
Dew Point: 33°   Wind: 13mph
Humidity: 94%   Direction: 100°E
Pressure: 29.82"   Gusts: 18mph
Location:  41.99°N, 84.35°W
Report Text: KJYM 230135Z AUTO 10011G16KT 5SM UP BKN050 OVC060 02/01 A2982 RMK AO2 T00170008
Loading
Personal Weather Stations






























Interactive Weather Map New forecast layout! Learn more

10-Day Weather Forecast

Advertisements
Track Severe Weather on mobile